sensor_id;sensor_type;location;lat;lon;timestamp;temperature;humidity
78516;SHT31;67815;51.990;5.688;2023-06-04T00:00:54;18.3;43.0
78516;SHT31;67815;51.990;5.688;2023-06-04T00:03:25;18.3;43.4
78516;SHT31;67815;51.990;5.688;2023-06-04T00:05:55;18.2;43.4
78516;SHT31;67815;51.990;5.688;2023-06-04T00:08:25;18.2;43.2
78516;SHT31;67815;51.990;5.688;2023-06-04T00:10:55;18.1;43.3
78516;SHT31;67815;51.990;5.688;2023-06-04T00:13:24;18.1;43.4
78516;SHT31;67815;51.990;5.688;2023-06-04T00:15:54;18.1;43.4
78516;SHT31;67815;51.990;5.688;2023-06-04T00:18:23;18.0;43.7
78516;SHT31;67815;51.990;5.688;2023-06-04T00:20:53;18.0;43.5
78516;SHT31;67815;51.990;5.688;2023-06-04T00:23:23;18.0;43.5
78516;SHT31;67815;51.990;5.688;2023-06-04T00:25:52;17.9;43.7
78516;SHT31;67815;51.990;5.688;2023-06-04T00:28:22;17.9;43.7
78516;SHT31;67815;51.990;5.688;2023-06-04T00:30:52;17.8;44.2
78516;SHT31;67815;51.990;5.688;2023-06-04T00:33:22;17.8;44.1
78516;SHT31;67815;51.990;5.688;2023-06-04T00:35:51;17.8;43.8
78516;SHT31;67815;51.990;5.688;2023-06-04T00:38:21;17.8;43.7
78516;SHT31;67815;51.990;5.688;2023-06-04T00:40:50;17.7;43.7
78516;SHT31;67815;51.990;5.688;2023-06-04T00:43:20;17.7;43.9
78516;SHT31;67815;51.990;5.688;2023-06-04T00:45:53;17.6;43.9
78516;SHT31;67815;51.990;5.688;2023-06-04T00:48:23;17.6;43.9
78516;SHT31;67815;51.990;5.688;2023-06-04T00:50:55;17.6;43.9
78516;SHT31;67815;51.990;5.688;2023-06-04T00:53:25;17.5;44.2
78516;SHT31;67815;51.990;5.688;2023-06-04T00:55:55;17.5;44.0
78516;SHT31;67815;51.990;5.688;2023-06-04T00:58:25;17.5;44.2
78516;SHT31;67815;51.990;5.688;2023-06-04T01:00:56;17.4;44.5
78516;SHT31;67815;51.990;5.688;2023-06-04T01:03:35;17.4;44.3
78516;SHT31;67815;51.990;5.688;2023-06-04T01:06:15;17.4;44.5
78516;SHT31;67815;51.990;5.688;2023-06-04T01:08:49;17.3;44.5
78516;SHT31;67815;51.990;5.688;2023-06-04T01:11:32;17.3;44.6
78516;SHT31;67815;51.990;5.688;2023-06-04T01:14:03;17.2;44.6
78516;SHT31;67815;51.990;5.688;2023-06-04T01:16:39;17.2;44.6
78516;SHT31;67815;51.990;5.688;2023-06-04T01:19:36;17.2;44.9
78516;SHT31;67815;51.990;5.688;2023-06-04T01:22:03;17.1;44.7
78516;SHT31;67815;51.990;5.688;2023-06-04T01:24:35;17.1;45.0
78516;SHT31;67815;51.990;5.688;2023-06-04T01:27:08;17.0;45.3
78516;SHT31;67815;51.990;5.688;2023-06-04T01:29:40;17.0;44.9
78516;SHT31;67815;51.990;5.688;2023-06-04T01:32:12;17.0;45.0
78516;SHT31;67815;51.990;5.688;2023-06-04T01:34:46;16.9;45.1
78516;SHT31;67815;51.990;5.688;2023-06-04T01:37:16;16.9;45.2
78516;SHT31;67815;51.990;5.688;2023-06-04T01:39:46;16.9;45.1
78516;SHT31;67815;51.990;5.688;2023-06-04T01:42:15;16.8;45.5
78516;SHT31;67815;51.990;5.688;2023-06-04T01:44:45;16.8;45.3
78516;SHT31;67815;51.990;5.688;2023-06-04T01:47:14;16.8;45.3
78516;SHT31;67815;51.990;5.688;2023-06-04T01:49:44;16.7;45.5
78516;SHT31;67815;51.990;5.688;2023-06-04T01:52:13;16.7;45.3
78516;SHT31;67815;51.990;5.688;2023-06-04T01:54:43;16.7;45.8
78516;SHT31;67815;51.990;5.688;2023-06-04T01:57:13;16.6;45.5
78516;SHT31;67815;51.990;5.688;2023-06-04T01:59:43;16.6;45.5
78516;SHT31;67815;51.990;5.688;2023-06-04T02:02:13;16.6;45.5
78516;SHT31;67815;51.990;5.688;2023-06-04T02:04:45;16.5;45.7
78516;SHT31;67815;51.990;5.688;2023-06-04T02:07:15;16.5;45.6
78516;SHT31;67815;51.990;5.688;2023-06-04T02:09:45;16.5;45.7
78516;SHT31;67815;51.990;5.688;2023-06-04T02:12:15;16.4;45.9
78516;SHT31;67815;51.990;5.688;2023-06-04T02:14:45;16.4;45.8
78516;SHT31;67815;51.990;5.688;2023-06-04T02:17:14;16.4;45.9
78516;SHT31;67815;51.990;5.688;2023-06-04T02:19:45;16.4;46.0
78516;SHT31;67815;51.990;5.688;2023-06-04T02:22:18;16.3;46.0
78516;SHT31;67815;51.990;5.688;2023-06-04T02:24:47;16.3;45.8
78516;SHT31;67815;51.990;5.688;2023-06-04T02:27:17;16.3;46.1
78516;SHT31;67815;51.990;5.688;2023-06-04T02:29:47;16.3;45.8
78516;SHT31;67815;51.990;5.688;2023-06-04T02:32:17;16.2;46.2
78516;SHT31;67815;51.990;5.688;2023-06-04T02:34:47;16.2;46.3
78516;SHT31;67815;51.990;5.688;2023-06-04T02:37:17;16.2;46.4
78516;SHT31;67815;51.990;5.688;2023-06-04T02:39:47;16.1;46.1
78516;SHT31;67815;51.990;5.688;2023-06-04T02:42:16;16.1;46.4
78516;SHT31;67815;51.990;5.688;2023-06-04T02:44:46;16.1;46.2
78516;SHT31;67815;51.990;5.688;2023-06-04T02:47:15;16.0;46.0
78516;SHT31;67815;51.990;5.688;2023-06-04T02:49:46;16.0;46.4
78516;SHT31;67815;51.990;5.688;2023-06-04T02:52:15;16.0;46.2
78516;SHT31;67815;51.990;5.688;2023-06-04T02:54:45;16.0;46.3
78516;SHT31;67815;51.990;5.688;2023-06-04T02:57:14;15.9;46.4
78516;SHT31;67815;51.990;5.688;2023-06-04T02:59:44;15.9;46.3
78516;SHT31;67815;51.990;5.688;2023-06-04T03:02:13;15.8;46.5
78516;SHT31;67815;51.990;5.688;2023-06-04T03:04:44;15.8;46.7
78516;SHT31;67815;51.990;5.688;2023-06-04T03:07:18;15.8;46.7
78516;SHT31;67815;51.990;5.688;2023-06-04T03:09:50;15.7;47.0
78516;SHT31;67815;51.990;5.688;2023-06-04T03:12:19;15.7;47.0
78516;SHT31;67815;51.990;5.688;2023-06-04T03:14:49;15.6;47.2
78516;SHT31;67815;51.990;5.688;2023-06-04T03:17:18;15.6;47.6
78516;SHT31;67815;51.990;5.688;2023-06-04T03:19:48;15.6;48.0
78516;SHT31;67815;51.990;5.688;2023-06-04T03:22:18;15.6;47.5
78516;SHT31;67815;51.990;5.688;2023-06-04T03:24:48;15.5;47.4
78516;SHT31;67815;51.990;5.688;2023-06-04T03:27:20;15.5;47.8
78516;SHT31;67815;51.990;5.688;2023-06-04T03:29:49;15.5;47.8
78516;SHT31;67815;51.990;5.688;2023-06-04T03:32:19;15.5;47.8
78516;SHT31;67815;51.990;5.688;2023-06-04T03:34:48;15.5;47.8
78516;SHT31;67815;51.990;5.688;2023-06-04T03:37:18;15.5;47.8
78516;SHT31;67815;51.990;5.688;2023-06-04T03:39:48;15.4;48.0
78516;SHT31;67815;51.990;5.688;2023-06-04T03:42:18;15.4;48.2
78516;SHT31;67815;51.990;5.688;2023-06-04T03:44:48;15.4;48.2
78516;SHT31;67815;51.990;5.688;2023-06-04T03:47:17;15.3;48.2
78516;SHT31;67815;51.990;5.688;2023-06-04T03:49:47;15.3;48.4
78516;SHT31;67815;51.990;5.688;2023-06-04T03:52:16;15.3;48.4
78516;SHT31;67815;51.990;5.688;2023-06-04T03:54:45;15.3;48.8
78516;SHT31;67815;51.990;5.688;2023-06-04T03:57:15;15.2;48.6
78516;SHT31;67815;51.990;5.688;2023-06-04T03:59:47;15.2;48.9
78516;SHT31;67815;51.990;5.688;2023-06-04T04:02:17;15.2;49.2
78516;SHT31;67815;51.990;5.688;2023-06-04T04:04:47;15.2;49.2
78516;SHT31;67815;51.990;5.688;2023-06-04T04:07:17;15.1;49.1
78516;SHT31;67815;51.990;5.688;2023-06-04T04:09:48;15.1;49.1
78516;SHT31;67815;51.990;5.688;2023-06-04T04:12:18;15.1;49.5
78516;SHT31;67815;51.990;5.688;2023-06-04T04:14:47;15.1;49.4
78516;SHT31;67815;51.990;5.688;2023-06-04T04:17:17;15.1;49.7
78516;SHT31;67815;51.990;5.688;2023-06-04T04:19:47;15.1;50.1
78516;SHT31;67815;51.990;5.688;2023-06-04T04:22:16;15.0;50.1
78516;SHT31;67815;51.990;5.688;2023-06-04T04:24:46;15.0;50.2
78516;SHT31;67815;51.990;5.688;2023-06-04T04:27:18;15.0;50.3
78516;SHT31;67815;51.990;5.688;2023-06-04T04:29:47;15.0;50.5
78516;SHT31;67815;51.990;5.688;2023-06-04T04:32:17;15.0;50.6
78516;SHT31;67815;51.990;5.688;2023-06-04T04:34:54;15.0;51.0
78516;SHT31;67815;51.990;5.688;2023-06-04T04:37:24;15.0;50.9
78516;SHT31;67815;51.990;5.688;2023-06-04T04:39:54;15.0;51.4
78516;SHT31;67815;51.990;5.688;2023-06-04T04:42:26;15.0;51.9
78516;SHT31;67815;51.990;5.688;2023-06-04T04:44:56;15.0;51.7
78516;SHT31;67815;51.990;5.688;2023-06-04T04:47:25;15.0;51.6
78516;SHT31;67815;51.990;5.688;2023-06-04T04:49:55;15.0;52.3
78516;SHT31;67815;51.990;5.688;2023-06-04T04:52:24;15.0;52.0
78516;SHT31;67815;51.990;5.688;2023-06-04T04:54:56;15.0;52.1
78516;SHT31;67815;51.990;5.688;2023-06-04T04:57:25;15.0;52.2
78516;SHT31;67815;51.990;5.688;2023-06-04T04:59:55;15.0;52.5
78516;SHT31;67815;51.990;5.688;2023-06-04T05:02:25;15.0;52.6
78516;SHT31;67815;51.990;5.688;2023-06-04T05:04:55;15.0;52.7
78516;SHT31;67815;51.990;5.688;2023-06-04T05:07:24;15.0;52.7
78516;SHT31;67815;51.990;5.688;2023-06-04T05:09:55;15.0;52.8
78516;SHT31;67815;51.990;5.688;2023-06-04T05:12:29;15.0;53.3
78516;SHT31;67815;51.990;5.688;2023-06-04T05:14:59;15.1;53.3
78516;SHT31;67815;51.990;5.688;2023-06-04T05:17:28;15.1;53.4
78516;SHT31;67815;51.990;5.688;2023-06-04T05:19:59;15.1;53.0
78516;SHT31;67815;51.990;5.688;2023-06-04T05:22:34;15.1;53.1
78516;SHT31;67815;51.990;5.688;2023-06-04T05:25:05;15.1;53.2
78516;SHT31;67815;51.990;5.688;2023-06-04T05:27:36;15.1;53.3
78516;SHT31;67815;51.990;5.688;2023-06-04T05:30:07;15.1;53.4
78516;SHT31;67815;51.990;5.688;2023-06-04T05:32:37;15.2;53.6
78516;SHT31;67815;51.990;5.688;2023-06-04T05:35:09;15.2;53.5
78516;SHT31;67815;51.990;5.688;2023-06-04T05:37:39;15.2;53.8
78516;SHT31;67815;51.990;5.688;2023-06-04T05:40:11;15.2;53.6
78516;SHT31;67815;51.990;5.688;2023-06-04T05:42:41;15.2;54.0
78516;SHT31;67815;51.990;5.688;2023-06-04T05:45:11;15.3;53.8
78516;SHT31;67815;51.990;5.688;2023-06-04T05:47:41;15.3;54.0
78516;SHT31;67815;51.990;5.688;2023-06-04T05:50:11;15.3;53.7
78516;SHT31;67815;51.990;5.688;2023-06-04T05:52:41;15.3;53.9
78516;SHT31;67815;51.990;5.688;2023-06-04T05:55:10;15.4;53.8
78516;SHT31;67815;51.990;5.688;2023-06-04T05:57:41;15.4;53.6
78516;SHT31;67815;51.990;5.688;2023-06-04T06:00:12;15.4;53.5
78516;SHT31;67815;51.990;5.688;2023-06-04T06:02:42;15.5;53.7
78516;SHT31;67815;51.990;5.688;2023-06-04T06:05:12;15.5;54.0
78516;SHT31;67815;51.990;5.688;2023-06-04T06:07:42;15.6;54.1
78516;SHT31;67815;51.990;5.688;2023-06-04T06:10:13;15.6;53.8
78516;SHT31;67815;51.990;5.688;2023-06-04T06:12:43;15.7;53.3
78516;SHT31;67815;51.990;5.688;2023-06-04T06:15:13;15.7;53.2
78516;SHT31;67815;51.990;5.688;2023-06-04T06:17:43;15.8;53.2
78516;SHT31;67815;51.990;5.688;2023-06-04T06:20:13;15.8;53.2
78516;SHT31;67815;51.990;5.688;2023-06-04T06:22:45;15.9;53.3
78516;SHT31;67815;51.990;5.688;2023-06-04T06:25:14;15.9;53.9
78516;SHT31;67815;51.990;5.688;2023-06-04T06:27:45;16.0;53.0
78516;SHT31;67815;51.990;5.688;2023-06-04T06:30:15;16.0;52.1
78516;SHT31;67815;51.990;5.688;2023-06-04T06:32:46;16.1;52.6
78516;SHT31;67815;51.990;5.688;2023-06-04T06:35:16;16.2;52.7
78516;SHT31;67815;51.990;5.688;2023-06-04T06:37:46;16.2;52.9
78516;SHT31;67815;51.990;5.688;2023-06-04T06:40:19;16.3;52.6
78516;SHT31;67815;51.990;5.688;2023-06-04T06:42:50;16.3;52.0
78516;SHT31;67815;51.990;5.688;2023-06-04T06:45:20;16.4;51.7
78516;SHT31;67815;51.990;5.688;2023-06-04T06:47:52;16.4;51.2
78516;SHT31;67815;51.990;5.688;2023-06-04T06:50:23;16.5;51.5
78516;SHT31;67815;51.990;5.688;2023-06-04T06:52:53;16.5;51.1
78516;SHT31;67815;51.990;5.688;2023-06-04T06:55:22;16.6;51.5
78516;SHT31;67815;51.990;5.688;2023-06-04T06:57:52;16.6;51.7
78516;SHT31;67815;51.990;5.688;2023-06-04T07:00:22;16.7;49.8
78516;SHT31;67815;51.990;5.688;2023-06-04T07:02:52;16.7;50.8
78516;SHT31;67815;51.990;5.688;2023-06-04T07:05:23;16.8;50.5
78516;SHT31;67815;51.990;5.688;2023-06-04T07:07:53;16.8;49.5
78516;SHT31;67815;51.990;5.688;2023-06-04T07:10:24;16.8;50.5
78516;SHT31;67815;51.990;5.688;2023-06-04T07:12:55;16.9;48.3
78516;SHT31;67815;51.990;5.688;2023-06-04T07:15:24;16.9;48.5
78516;SHT31;67815;51.990;5.688;2023-06-04T07:17:54;17.0;48.7
78516;SHT31;67815;51.990;5.688;2023-06-04T07:20:23;17.0;48.4
78516;SHT31;67815;51.990;5.688;2023-06-04T07:22:53;17.1;48.4
78516;SHT31;67815;51.990;5.688;2023-06-04T07:25:23;17.2;49.0
78516;SHT31;67815;51.990;5.688;2023-06-04T07:27:53;17.2;48.1
78516;SHT31;67815;51.990;5.688;2023-06-04T07:30:26;17.3;48.4
78516;SHT31;67815;51.990;5.688;2023-06-04T07:32:55;17.3;48.5
78516;SHT31;67815;51.990;5.688;2023-06-04T07:35:25;17.4;47.6
78516;SHT31;67815;51.990;5.688;2023-06-04T07:37:55;17.5;47.6
78516;SHT31;67815;51.990;5.688;2023-06-04T07:40:24;17.5;47.5
78516;SHT31;67815;51.990;5.688;2023-06-04T07:42:54;17.6;47.7
78516;SHT31;67815;51.990;5.688;2023-06-04T07:45:23;17.7;45.0
78516;SHT31;67815;51.990;5.688;2023-06-04T07:47:53;17.7;46.3
78516;SHT31;67815;51.990;5.688;2023-06-04T07:50:23;17.8;46.3
78516;SHT31;67815;51.990;5.688;2023-06-04T07:52:53;17.8;45.7
78516;SHT31;67815;51.990;5.688;2023-06-04T07:55:23;17.9;46.4
78516;SHT31;67815;51.990;5.688;2023-06-04T07:57:53;18.0;45.1
78516;SHT31;67815;51.990;5.688;2023-06-04T08:00:22;18.0;42.8
78516;SHT31;67815;51.990;5.688;2023-06-04T08:02:52;18.1;43.4
78516;SHT31;67815;51.990;5.688;2023-06-04T08:05:22;18.2;43.5
78516;SHT31;67815;51.990;5.688;2023-06-04T08:07:51;18.2;43.9
78516;SHT31;67815;51.990;5.688;2023-06-04T08:10:21;18.3;42.9
78516;SHT31;67815;51.990;5.688;2023-06-04T08:12:51;18.3;41.6
78516;SHT31;67815;51.990;5.688;2023-06-04T08:15:20;18.4;41.1
78516;SHT31;67815;51.990;5.688;2023-06-04T08:17:51;18.5;42.7
78516;SHT31;67815;51.990;5.688;2023-06-04T08:20:23;18.5;43.8
78516;SHT31;67815;51.990;5.688;2023-06-04T08:22:53;18.6;42.3
78516;SHT31;67815;51.990;5.688;2023-06-04T08:25:23;18.7;41.3
78516;SHT31;67815;51.990;5.688;2023-06-04T08:27:52;18.8;40.7
78516;SHT31;67815;51.990;5.688;2023-06-04T08:30:23;18.8;40.0
78516;SHT31;67815;51.990;5.688;2023-06-04T08:32:53;18.9;41.6
78516;SHT31;67815;51.990;5.688;2023-06-04T08:35:22;18.9;40.3
78516;SHT31;67815;51.990;5.688;2023-06-04T08:37:54;19.0;41.0
78516;SHT31;67815;51.990;5.688;2023-06-04T08:40:23;19.1;41.3
78516;SHT31;67815;51.990;5.688;2023-06-04T08:42:55;19.1;40.2
78516;SHT31;67815;51.990;5.688;2023-06-04T08:45:27;19.2;40.7
78516;SHT31;67815;51.990;5.688;2023-06-04T08:47:57;19.2;39.6
78516;SHT31;67815;51.990;5.688;2023-06-04T08:50:28;19.3;38.3
78516;SHT31;67815;51.990;5.688;2023-06-04T08:52:59;19.3;37.8
78516;SHT31;67815;51.990;5.688;2023-06-04T08:55:29;19.4;38.0
78516;SHT31;67815;51.990;5.688;2023-06-04T08:58:02;19.4;38.8
78516;SHT31;67815;51.990;5.688;2023-06-04T09:00:35;19.5;39.2
78516;SHT31;67815;51.990;5.688;2023-06-04T09:03:05;19.5;38.8
78516;SHT31;67815;51.990;5.688;2023-06-04T09:05:36;19.6;38.0
78516;SHT31;67815;51.990;5.688;2023-06-04T09:08:08;19.6;37.8
78516;SHT31;67815;51.990;5.688;2023-06-04T09:10:41;19.7;38.0
78516;SHT31;67815;51.990;5.688;2023-06-04T09:13:11;19.7;37.1
78516;SHT31;67815;51.990;5.688;2023-06-04T09:15:42;19.8;37.0
78516;SHT31;67815;51.990;5.688;2023-06-04T09:18:13;19.8;37.1
78516;SHT31;67815;51.990;5.688;2023-06-04T09:20:42;19.9;34.6
78516;SHT31;67815;51.990;5.688;2023-06-04T09:23:15;19.9;34.6
78516;SHT31;67815;51.990;5.688;2023-06-04T09:25:45;19.9;35.4
78516;SHT31;67815;51.990;5.688;2023-06-04T09:28:15;20.0;36.1
78516;SHT31;67815;51.990;5.688;2023-06-04T09:30:52;20.0;35.8
78516;SHT31;67815;51.990;5.688;2023-06-04T09:33:22;20.1;35.9
78516;SHT31;67815;51.990;5.688;2023-06-04T09:35:58;20.1;36.0
78516;SHT31;67815;51.990;5.688;2023-06-04T09:38:35;20.2;35.5
78516;SHT31;67815;51.990;5.688;2023-06-04T09:41:10;20.2;35.4
78516;SHT31;67815;51.990;5.688;2023-06-04T09:43:40;20.3;34.4
78516;SHT31;67815;51.990;5.688;2023-06-04T09:46:13;20.3;35.3
78516;SHT31;67815;51.990;5.688;2023-06-04T09:48:44;20.4;35.8
78516;SHT31;67815;51.990;5.688;2023-06-04T09:51:15;20.5;35.9
78516;SHT31;67815;51.990;5.688;2023-06-04T09:53:55;20.6;34.1
78516;SHT31;67815;51.990;5.688;2023-06-04T09:56:26;20.8;34.4
78516;SHT31;67815;51.990;5.688;2023-06-04T09:58:59;20.9;35.4
78516;SHT31;67815;51.990;5.688;2023-06-04T10:01:30;21.0;31.7
78516;SHT31;67815;51.990;5.688;2023-06-04T10:04:03;21.1;31.6
78516;SHT31;67815;51.990;5.688;2023-06-04T10:06:36;21.1;33.2
78516;SHT31;67815;51.990;5.688;2023-06-04T10:09:08;21.1;31.9
78516;SHT31;67815;51.990;5.688;2023-06-04T10:11:41;21.2;32.0
78516;SHT31;67815;51.990;5.688;2023-06-04T10:14:21;21.2;33.3
78516;SHT31;67815;51.990;5.688;2023-06-04T10:16:53;21.2;33.4
78516;SHT31;67815;51.990;5.688;2023-06-04T10:19:24;21.2;32.6
78516;SHT31;67815;51.990;5.688;2023-06-04T10:21:55;21.3;31.6
78516;SHT31;67815;51.990;5.688;2023-06-04T10:24:25;21.3;31.7
78516;SHT31;67815;51.990;5.688;2023-06-04T10:26:58;21.3;32.2
78516;SHT31;67815;51.990;5.688;2023-06-04T10:29:30;21.3;32.1
78516;SHT31;67815;51.990;5.688;2023-06-04T10:32:00;21.4;33.6
78516;SHT31;67815;51.990;5.688;2023-06-04T10:34:31;21.4;33.8
78516;SHT31;67815;51.990;5.688;2023-06-04T10:37:01;21.4;31.8
78516;SHT31;67815;51.990;5.688;2023-06-04T10:39:32;21.5;31.2
78516;SHT31;67815;51.990;5.688;2023-06-04T10:42:04;21.5;32.5
78516;SHT31;67815;51.990;5.688;2023-06-04T10:44:45;21.5;33.8
78516;SHT31;67815;51.990;5.688;2023-06-04T10:47:20;21.6;33.1
78516;SHT31;67815;51.990;5.688;2023-06-04T10:49:52;21.7;33.1
78516;SHT31;67815;51.990;5.688;2023-06-04T10:52:23;21.7;32.2
78516;SHT31;67815;51.990;5.688;2023-06-04T10:55:04;21.8;31.7
78516;SHT31;67815;51.990;5.688;2023-06-04T10:57:35;21.8;32.4
78516;SHT31;67815;51.990;5.688;2023-06-04T11:00:07;21.9;30.9
78516;SHT31;67815;51.990;5.688;2023-06-04T11:02:42;21.9;32.4
78516;SHT31;67815;51.990;5.688;2023-06-04T11:05:12;21.9;30.8
78516;SHT31;67815;51.990;5.688;2023-06-04T11:07:43;22.0;33.0
78516;SHT31;67815;51.990;5.688;2023-06-04T11:10:15;22.0;31.4
78516;SHT31;67815;51.990;5.688;2023-06-04T11:12:46;22.0;32.8
78516;SHT31;67815;51.990;5.688;2023-06-04T11:15:18;22.1;33.6
78516;SHT31;67815;51.990;5.688;2023-06-04T11:17:53;22.1;33.5
78516;SHT31;67815;51.990;5.688;2023-06-04T11:20:25;22.2;32.9
78516;SHT31;67815;51.990;5.688;2023-06-04T11:22:57;22.3;32.8
78516;SHT31;67815;51.990;5.688;2023-06-04T11:25:30;22.4;32.0
78516;SHT31;67815;51.990;5.688;2023-06-04T11:28:01;22.5;31.9
78516;SHT31;67815;51.990;5.688;2023-06-04T11:30:31;22.5;32.1
78516;SHT31;67815;51.990;5.688;2023-06-04T11:33:05;22.6;31.8
78516;SHT31;67815;51.990;5.688;2023-06-04T11:35:42;22.7;31.2
78516;SHT31;67815;51.990;5.688;2023-06-04T11:38:14;22.8;31.5
78516;SHT31;67815;51.990;5.688;2023-06-04T11:40:46;22.8;31.7
78516;SHT31;67815;51.990;5.688;2023-06-04T11:43:21;22.8;32.6
78516;SHT31;67815;51.990;5.688;2023-06-04T11:45:51;22.9;32.4
78516;SHT31;67815;51.990;5.688;2023-06-04T11:48:21;22.9;33.0
78516;SHT31;67815;51.990;5.688;2023-06-04T11:50:51;23.0;33.7
78516;SHT31;67815;51.990;5.688;2023-06-04T11:53:24;23.0;32.3
78516;SHT31;67815;51.990;5.688;2023-06-04T11:55:54;23.1;31.9
78516;SHT31;67815;51.990;5.688;2023-06-04T11:58:24;23.2;33.1
78516;SHT31;67815;51.990;5.688;2023-06-04T12:00:55;23.2;32.0
78516;SHT31;67815;51.990;5.688;2023-06-04T12:03:34;23.3;31.3
78516;SHT31;67815;51.990;5.688;2023-06-04T12:06:17;23.3;31.7
78516;SHT31;67815;51.990;5.688;2023-06-04T12:08:49;23.4;31.7
78516;SHT31;67815;51.990;5.688;2023-06-04T12:11:30;23.4;32.2
78516;SHT31;67815;51.990;5.688;2023-06-04T12:14:03;23.5;32.3
78516;SHT31;67815;51.990;5.688;2023-06-04T12:16:34;23.5;31.5
78516;SHT31;67815;51.990;5.688;2023-06-04T12:19:08;23.5;31.7
78516;SHT31;67815;51.990;5.688;2023-06-04T12:21:39;23.6;32.2
78516;SHT31;67815;51.990;5.688;2023-06-04T12:24:12;23.6;32.4
78516;SHT31;67815;51.990;5.688;2023-06-04T12:26:43;23.7;32.5
78516;SHT31;67815;51.990;5.688;2023-06-04T12:29:14;23.7;31.0
78516;SHT31;67815;51.990;5.688;2023-06-04T12:31:45;23.8;31.3
78516;SHT31;67815;51.990;5.688;2023-06-04T12:34:15;23.8;30.6
78516;SHT31;67815;51.990;5.688;2023-06-04T12:36:45;23.9;30.7
78516;SHT31;67815;51.990;5.688;2023-06-04T12:39:14;23.9;31.4
78516;SHT31;67815;51.990;5.688;2023-06-04T12:41:46;23.9;32.4
78516;SHT31;67815;51.990;5.688;2023-06-04T12:44:16;24.0;31.0
78516;SHT31;67815;51.990;5.688;2023-06-04T12:46:46;24.0;31.8
78516;SHT31;67815;51.990;5.688;2023-06-04T12:49:16;24.1;30.4
78516;SHT31;67815;51.990;5.688;2023-06-04T12:51:47;24.1;31.9
78516;SHT31;67815;51.990;5.688;2023-06-04T12:54:18;24.2;32.3
78516;SHT31;67815;51.990;5.688;2023-06-04T12:56:50;24.2;31.3
78516;SHT31;67815;51.990;5.688;2023-06-04T12:59:19;24.3;31.8
78516;SHT31;67815;51.990;5.688;2023-06-04T13:01:49;24.3;32.0
78516;SHT31;67815;51.990;5.688;2023-06-04T13:04:19;24.4;32.3
78516;SHT31;67815;51.990;5.688;2023-06-04T13:06:51;24.4;30.7
78516;SHT31;67815;51.990;5.688;2023-06-04T13:09:27;24.5;31.4
78516;SHT31;67815;51.990;5.688;2023-06-04T13:12:00;24.5;31.0
78516;SHT31;67815;51.990;5.688;2023-06-04T13:14:31;24.6;31.7
78516;SHT31;67815;51.990;5.688;2023-06-04T13:17:02;24.6;31.3
78516;SHT31;67815;51.990;5.688;2023-06-04T13:19:35;24.6;31.1
78516;SHT31;67815;51.990;5.688;2023-06-04T13:22:05;24.7;31.6
78516;SHT31;67815;51.990;5.688;2023-06-04T13:24:36;24.7;30.6
78516;SHT31;67815;51.990;5.688;2023-06-04T13:27:09;24.8;30.7
78516;SHT31;67815;51.990;5.688;2023-06-04T13:29:38;24.8;30.5
78516;SHT31;67815;51.990;5.688;2023-06-04T13:32:08;24.9;31.2
78516;SHT31;67815;51.990;5.688;2023-06-04T13:34:37;24.9;30.6
78516;SHT31;67815;51.990;5.688;2023-06-04T13:37:07;24.9;30.5
78516;SHT31;67815;51.990;5.688;2023-06-04T13:39:38;24.9;30.4
78516;SHT31;67815;51.990;5.688;2023-06-04T13:42:08;24.9;30.5
78516;SHT31;67815;51.990;5.688;2023-06-04T13:44:38;25.0;31.1
78516;SHT31;67815;51.990;5.688;2023-06-04T13:47:07;25.0;29.8
78516;SHT31;67815;51.990;5.688;2023-06-04T13:49:37;25.0;30.0
78516;SHT31;67815;51.990;5.688;2023-06-04T13:52:09;25.1;31.0
78516;SHT31;67815;51.990;5.688;2023-06-04T13:54:39;25.1;31.0
78516;SHT31;67815;51.990;5.688;2023-06-04T13:57:08;25.1;30.7
78516;SHT31;67815;51.990;5.688;2023-06-04T13:59:39;25.2;29.8
78516;SHT31;67815;51.990;5.688;2023-06-04T14:02:11;25.2;30.1
78516;SHT31;67815;51.990;5.688;2023-06-04T14:04:41;25.2;30.6
78516;SHT31;67815;51.990;5.688;2023-06-04T14:07:10;25.3;29.7
78516;SHT31;67815;51.990;5.688;2023-06-04T14:09:40;25.3;30.9
78516;SHT31;67815;51.990;5.688;2023-06-04T14:12:10;25.4;30.2
78516;SHT31;67815;51.990;5.688;2023-06-04T14:14:40;25.4;30.5
78516;SHT31;67815;51.990;5.688;2023-06-04T14:17:10;25.5;30.8
78516;SHT31;67815;51.990;5.688;2023-06-04T14:19:40;25.5;29.1
78516;SHT31;67815;51.990;5.688;2023-06-04T14:22:10;25.6;29.5
78516;SHT31;67815;51.990;5.688;2023-06-04T14:24:43;25.6;28.8
78516;SHT31;67815;51.990;5.688;2023-06-04T14:27:13;25.6;29.1
78516;SHT31;67815;51.990;5.688;2023-06-04T14:29:43;25.7;29.6
78516;SHT31;67815;51.990;5.688;2023-06-04T14:32:13;25.7;30.1
78516;SHT31;67815;51.990;5.688;2023-06-04T14:34:42;25.7;30.3
78516;SHT31;67815;51.990;5.688;2023-06-04T14:37:12;25.7;29.5
78516;SHT31;67815;51.990;5.688;2023-06-04T14:39:42;25.8;29.2
78516;SHT31;67815;51.990;5.688;2023-06-04T14:42:11;25.8;29.8
78516;SHT31;67815;51.990;5.688;2023-06-04T14:44:41;25.9;29.4
78516;SHT31;67815;51.990;5.688;2023-06-04T14:47:10;25.9;30.9
78516;SHT31;67815;51.990;5.688;2023-06-04T14:49:40;26.0;29.1
78516;SHT31;67815;51.990;5.688;2023-06-04T14:52:10;26.0;28.6
78516;SHT31;67815;51.990;5.688;2023-06-04T14:54:40;26.0;29.1
78516;SHT31;67815;51.990;5.688;2023-06-04T14:57:10;26.1;29.9
78516;SHT31;67815;51.990;5.688;2023-06-04T14:59:42;26.1;29.6
78516;SHT31;67815;51.990;5.688;2023-06-04T15:02:12;26.1;29.7
78516;SHT31;67815;51.990;5.688;2023-06-04T15:04:47;26.1;29.7
78516;SHT31;67815;51.990;5.688;2023-06-04T15:07:16;26.2;29.8
78516;SHT31;67815;51.990;5.688;2023-06-04T15:09:46;26.2;30.0
78516;SHT31;67815;51.990;5.688;2023-06-04T15:12:16;26.2;30.0
78516;SHT31;67815;51.990;5.688;2023-06-04T15:14:47;26.2;30.0
78516;SHT31;67815;51.990;5.688;2023-06-04T15:17:16;26.3;29.9
78516;SHT31;67815;51.990;5.688;2023-06-04T15:19:46;26.3;28.6
78516;SHT31;67815;51.990;5.688;2023-06-04T15:22:15;26.3;29.2
78516;SHT31;67815;51.990;5.688;2023-06-04T15:24:45;26.3;28.2
78516;SHT31;67815;51.990;5.688;2023-06-04T15:27:14;26.3;28.5
78516;SHT31;67815;51.990;5.688;2023-06-04T15:29:45;26.3;28.3
78516;SHT31;67815;51.990;5.688;2023-06-04T15:32:14;26.3;29.3
78516;SHT31;67815;51.990;5.688;2023-06-04T15:34:46;26.3;29.2
78516;SHT31;67815;51.990;5.688;2023-06-04T15:37:16;26.4;29.3
78516;SHT31;67815;51.990;5.688;2023-06-04T15:39:46;26.4;29.8
78516;SHT31;67815;51.990;5.688;2023-06-04T15:42:16;26.4;28.8
78516;SHT31;67815;51.990;5.688;2023-06-04T15:44:47;26.4;28.9
78516;SHT31;67815;51.990;5.688;2023-06-04T15:47:19;26.4;29.3
78516;SHT31;67815;51.990;5.688;2023-06-04T15:49:49;26.5;30.3
78516;SHT31;67815;51.990;5.688;2023-06-04T15:52:18;26.5;29.1
78516;SHT31;67815;51.990;5.688;2023-06-04T15:54:49;26.5;28.0
78516;SHT31;67815;51.990;5.688;2023-06-04T15:57:18;26.5;28.6
78516;SHT31;67815;51.990;5.688;2023-06-04T15:59:48;26.5;28.8
78516;SHT31;67815;51.990;5.688;2023-06-04T16:02:17;26.5;28.7
78516;SHT31;67815;51.990;5.688;2023-06-04T16:04:47;26.5;28.4
78516;SHT31;67815;51.990;5.688;2023-06-04T16:07:17;26.5;27.9
78516;SHT31;67815;51.990;5.688;2023-06-04T16:09:46;26.4;27.8
78516;SHT31;67815;51.990;5.688;2023-06-04T16:12:18;26.4;29.2
78516;SHT31;67815;51.990;5.688;2023-06-04T16:14:47;26.4;28.5
78516;SHT31;67815;51.990;5.688;2023-06-04T16:17:17;26.4;29.1
78516;SHT31;67815;51.990;5.688;2023-06-04T16:19:47;26.3;29.5
78516;SHT31;67815;51.990;5.688;2023-06-04T16:22:17;26.3;29.2
78516;SHT31;67815;51.990;5.688;2023-06-04T16:24:48;26.3;29.4